San Martin de los Andes, Argentina
Current Conditions -  °F | °C
As of 8:00 PM on Friday 24 Oct 2014 (Local Time) from SAZS Reporting Station
Clear Clear  
Wind Chill: 64°   Ceiling: Unl
Heat Index: 64°   Visibility: 6mi
Dew Point: 34°   Wind: 13mph
Humidity: 32%   Direction: 320°NW
Pressure: 30.03"   Gusts: NA
Location:  40.16°S, 71.36°W
Report Text: SAZS 242300Z 32011KT CAVOK 18/01 Q1017
Loading
Personal Weather Stations






























Interactive Weather Map New forecast layout! Learn more

10-Day Weather Forecast

Advertisements
Track Severe Weather on mobile